sensor_id;sensor_type;location;lat;lon;timestamp;P1;durP1;ratioP1;P2;durP2;ratioP2
52744;SDS011;38637;49.984;20.426;2022-11-25T00:02:03;42.53;;;31.23;;
52744;SDS011;38637;49.984;20.426;2022-11-25T00:04:29;39.90;;;29.00;;
52744;SDS011;38637;49.984;20.426;2022-11-25T00:07:00;42.45;;;29.80;;
52744;SDS011;38637;49.984;20.426;2022-11-25T00:09:26;41.13;;;30.10;;
52744;SDS011;38637;49.984;20.426;2022-11-25T00:11:51;37.10;;;28.43;;
52744;SDS011;38637;49.984;20.426;2022-11-25T00:14:16;37.40;;;27.97;;
52744;SDS011;38637;49.984;20.426;2022-11-25T00:16:41;39.93;;;28.83;;
52744;SDS011;38637;49.984;20.426;2022-11-25T00:19:08;42.40;;;29.50;;
52744;SDS011;38637;49.984;20.426;2022-11-25T00:21:34;39.05;;;28.02;;
52744;SDS011;38637;49.984;20.426;2022-11-25T00:24:01;37.83;;;27.40;;
52744;SDS011;38637;49.984;20.426;2022-11-25T00:26:29;36.33;;;27.15;;
52744;SDS011;38637;49.984;20.426;2022-11-25T00:28:59;39.05;;;27.80;;
52744;SDS011;38637;49.984;20.426;2022-11-25T00:31:26;36.75;;;27.35;;
52744;SDS011;38637;49.984;20.426;2022-11-25T00:33:53;36.95;;;26.88;;
52744;SDS011;38637;49.984;20.426;2022-11-25T00:36:23;37.03;;;28.17;;
52744;SDS011;38637;49.984;20.426;2022-11-25T00:38:57;39.08;;;26.88;;
52744;SDS011;38637;49.984;20.426;2022-11-25T00:41:25;35.40;;;27.60;;
52744;SDS011;38637;49.984;20.426;2022-11-25T00:44:10;35.65;;;27.45;;
52744;SDS011;38637;49.984;20.426;2022-11-25T00:46:55;37.15;;;27.73;;
52744;SDS011;38637;49.984;20.426;2022-11-25T00:49:21;39.30;;;28.83;;
52744;SDS011;38637;49.984;20.426;2022-11-25T00:51:47;48.00;;;34.43;;
52744;SDS011;38637;49.984;20.426;2022-11-25T00:54:12;48.47;;;32.87;;
52744;SDS011;38637;49.984;20.426;2022-11-25T00:56:38;48.30;;;34.17;;
52744;SDS011;38637;49.984;20.426;2022-11-25T00:59:03;45.20;;;31.83;;
52744;SDS011;38637;49.984;20.426;2022-11-25T01:01:29;45.80;;;30.87;;
52744;SDS011;38637;49.984;20.426;2022-11-25T01:03:54;51.80;;;32.67;;
52744;SDS011;38637;49.984;20.426;2022-11-25T01:06:20;50.03;;;32.60;;
52744;SDS011;38637;49.984;20.426;2022-11-25T01:08:46;48.65;;;32.22;;
52744;SDS011;38637;49.984;20.426;2022-11-25T01:11:13;47.90;;;30.57;;
52744;SDS011;38637;49.984;20.426;2022-11-25T01:13:40;42.65;;;30.67;;
52744;SDS011;38637;49.984;20.426;2022-11-25T01:16:07;48.57;;;31.27;;
52744;SDS011;38637;49.984;20.426;2022-11-25T01:18:35;47.33;;;31.83;;
52744;SDS011;38637;49.984;20.426;2022-11-25T01:21:07;51.47;;;32.27;;
52744;SDS011;38637;49.984;20.426;2022-11-25T01:23:34;48.50;;;31.85;;
52744;SDS011;38637;49.984;20.426;2022-11-25T01:26:00;46.72;;;32.10;;
52744;SDS011;38637;49.984;20.426;2022-11-25T01:28:30;47.65;;;31.23;;
52744;SDS011;38637;49.984;20.426;2022-11-25T01:31:04;47.72;;;31.35;;
52744;SDS011;38637;49.984;20.426;2022-11-25T01:33:34;53.92;;;33.85;;
52744;SDS011;38637;49.984;20.426;2022-11-25T01:36:04;45.10;;;31.87;;
52744;SDS011;38637;49.984;20.426;2022-11-25T01:38:31;52.85;;;34.80;;
52744;SDS011;38637;49.984;20.426;2022-11-25T01:40:57;59.67;;;33.45;;
52744;SDS011;38637;49.984;20.426;2022-11-25T01:43:23;46.47;;;33.00;;
52744;SDS011;38637;49.984;20.426;2022-11-25T01:45:49;48.28;;;31.83;;
52744;SDS011;38637;49.984;20.426;2022-11-25T01:50:40;54.10;;;35.90;;
52744;SDS011;38637;49.984;20.426;2022-11-25T01:55:35;54.13;;;35.25;;
52744;SDS011;38637;49.984;20.426;2022-11-25T01:58:05;49.90;;;33.70;;
52744;SDS011;38637;49.984;20.426;2022-11-25T02:00:37;51.22;;;33.88;;
52744;SDS011;38637;49.984;20.426;2022-11-25T02:03:06;53.63;;;34.90;;
52744;SDS011;38637;49.984;20.426;2022-11-25T02:05:40;56.90;;;36.38;;
52744;SDS011;38637;49.984;20.426;2022-11-25T02:08:13;61.22;;;38.53;;
52744;SDS011;38637;49.984;20.426;2022-11-25T02:13:06;53.90;;;35.47;;
52744;SDS011;38637;49.984;20.426;2022-11-25T02:15:32;57.10;;;37.03;;
52744;SDS011;38637;49.984;20.426;2022-11-25T02:18:01;58.25;;;37.75;;
52744;SDS011;38637;49.984;20.426;2022-11-25T02:20:32;59.00;;;36.80;;
52744;SDS011;38637;49.984;20.426;2022-11-25T02:23:19;54.88;;;35.58;;
52744;SDS011;38637;49.984;20.426;2022-11-25T02:25:55;52.67;;;36.47;;
52744;SDS011;38637;49.984;20.426;2022-11-25T02:28:22;57.83;;;35.47;;
52744;SDS011;38637;49.984;20.426;2022-11-25T02:30:50;54.53;;;35.25;;
52744;SDS011;38637;49.984;20.426;2022-11-25T02:33:16;56.97;;;37.93;;
52744;SDS011;38637;49.984;20.426;2022-11-25T02:38:35;56.70;;;37.45;;
52744;SDS011;38637;49.984;20.426;2022-11-25T02:43:31;56.20;;;36.78;;
52744;SDS011;38637;49.984;20.426;2022-11-25T02:45:58;56.50;;;35.87;;
52744;SDS011;38637;49.984;20.426;2022-11-25T02:48:30;49.78;;;33.28;;
52744;SDS011;38637;49.984;20.426;2022-11-25T02:50:59;53.15;;;36.83;;
52744;SDS011;38637;49.984;20.426;2022-11-25T02:53:25;56.15;;;34.42;;
52744;SDS011;38637;49.984;20.426;2022-11-25T02:55:51;57.78;;;37.00;;
52744;SDS011;38637;49.984;20.426;2022-11-25T02:58:17;56.07;;;37.13;;
52744;SDS011;38637;49.984;20.426;2022-11-25T03:00:44;80.78;;;53.28;;
52744;SDS011;38637;49.984;20.426;2022-11-25T03:03:09;91.82;;;60.25;;
52744;SDS011;38637;49.984;20.426;2022-11-25T03:05:35;75.40;;;49.30;;
52744;SDS011;38637;49.984;20.426;2022-11-25T03:08:01;64.93;;;43.83;;
52744;SDS011;38637;49.984;20.426;2022-11-25T03:10:27;64.70;;;43.63;;
52744;SDS011;38637;49.984;20.426;2022-11-25T03:12:52;63.93;;;43.30;;
52744;SDS011;38637;49.984;20.426;2022-11-25T03:15:18;64.00;;;44.20;;
52744;SDS011;38637;49.984;20.426;2022-11-25T03:17:44;63.63;;;43.70;;
52744;SDS011;38637;49.984;20.426;2022-11-25T03:20:09;64.10;;;42.10;;
52744;SDS011;38637;49.984;20.426;2022-11-25T03:22:37;57.72;;;41.30;;
52744;SDS011;38637;49.984;20.426;2022-11-25T03:25:02;58.23;;;38.83;;
52744;SDS011;38637;49.984;20.426;2022-11-25T03:27:28;59.87;;;39.07;;
52744;SDS011;38637;49.984;20.426;2022-11-25T03:29:53;55.50;;;37.93;;
52744;SDS011;38637;49.984;20.426;2022-11-25T03:32:19;53.40;;;36.80;;
52744;SDS011;38637;49.984;20.426;2022-11-25T03:34:44;58.70;;;39.00;;
52744;SDS011;38637;49.984;20.426;2022-11-25T03:37:09;51.77;;;35.13;;
52744;SDS011;38637;49.984;20.426;2022-11-25T03:39:35;56.73;;;36.17;;
52744;SDS011;38637;49.984;20.426;2022-11-25T03:42:00;49.10;;;35.23;;
52744;SDS011;38637;49.984;20.426;2022-11-25T03:44:25;52.57;;;35.63;;
52744;SDS011;38637;49.984;20.426;2022-11-25T03:46:51;55.50;;;37.03;;
52744;SDS011;38637;49.984;20.426;2022-11-25T03:49:16;56.17;;;35.83;;
52744;SDS011;38637;49.984;20.426;2022-11-25T03:51:41;55.43;;;35.93;;
52744;SDS011;38637;49.984;20.426;2022-11-25T03:54:07;59.33;;;37.93;;
52744;SDS011;38637;49.984;20.426;2022-11-25T03:56:32;55.77;;;36.23;;
52744;SDS011;38637;49.984;20.426;2022-11-25T03:58:57;61.23;;;39.40;;
52744;SDS011;38637;49.984;20.426;2022-11-25T04:01:23;54.67;;;36.17;;
52744;SDS011;38637;49.984;20.426;2022-11-25T04:03:48;51.60;;;34.90;;
52744;SDS011;38637;49.984;20.426;2022-11-25T04:06:13;55.03;;;36.50;;
52744;SDS011;38637;49.984;20.426;2022-11-25T04:08:40;57.95;;;36.15;;
52744;SDS011;38637;49.984;20.426;2022-11-25T04:11:05;62.47;;;39.93;;
52744;SDS011;38637;49.984;20.426;2022-11-25T04:13:31;56.03;;;37.23;;
52744;SDS011;38637;49.984;20.426;2022-11-25T04:15:56;56.50;;;37.07;;
52744;SDS011;38637;49.984;20.426;2022-11-25T04:18:21;57.07;;;35.57;;
52744;SDS011;38637;49.984;20.426;2022-11-25T04:20:47;57.00;;;36.17;;
52744;SDS011;38637;49.984;20.426;2022-11-25T04:23:12;50.50;;;34.53;;
52744;SDS011;38637;49.984;20.426;2022-11-25T04:25:38;57.47;;;35.03;;
52744;SDS011;38637;49.984;20.426;2022-11-25T04:28:04;53.80;;;34.13;;
52744;SDS011;38637;49.984;20.426;2022-11-25T04:30:30;55.77;;;36.17;;
52744;SDS011;38637;49.984;20.426;2022-11-25T04:32:56;53.67;;;34.33;;
52744;SDS011;38637;49.984;20.426;2022-11-25T04:35:21;53.67;;;34.90;;
52744;SDS011;38637;49.984;20.426;2022-11-25T04:37:47;54.67;;;36.73;;
52744;SDS011;38637;49.984;20.426;2022-11-25T04:40:12;55.67;;;35.60;;
52744;SDS011;38637;49.984;20.426;2022-11-25T04:42:38;59.57;;;37.70;;
52744;SDS011;38637;49.984;20.426;2022-11-25T04:45:05;58.07;;;38.67;;
52744;SDS011;38637;49.984;20.426;2022-11-25T04:47:33;54.25;;;36.97;;
52744;SDS011;38637;49.984;20.426;2022-11-25T04:49:58;57.97;;;35.70;;
52744;SDS011;38637;49.984;20.426;2022-11-25T04:52:23;56.00;;;34.63;;
52744;SDS011;38637;49.984;20.426;2022-11-25T04:54:49;51.57;;;34.43;;
52744;SDS011;38637;49.984;20.426;2022-11-25T04:57:14;49.00;;;33.00;;
52744;SDS011;38637;49.984;20.426;2022-11-25T04:59:41;49.50;;;32.70;;
52744;SDS011;38637;49.984;20.426;2022-11-25T05:02:17;49.45;;;32.03;;
52744;SDS011;38637;49.984;20.426;2022-11-25T05:04:46;48.58;;;32.55;;
52744;SDS011;38637;49.984;20.426;2022-11-25T05:07:13;48.72;;;32.25;;
52744;SDS011;38637;49.984;20.426;2022-11-25T05:09:39;47.75;;;31.63;;
52744;SDS011;38637;49.984;20.426;2022-11-25T05:12:05;49.10;;;32.57;;
52744;SDS011;38637;49.984;20.426;2022-11-25T05:14:32;46.38;;;31.40;;
52744;SDS011;38637;49.984;20.426;2022-11-25T05:16:59;50.83;;;32.45;;
52744;SDS011;38637;49.984;20.426;2022-11-25T05:19:26;51.75;;;33.97;;
52744;SDS011;38637;49.984;20.426;2022-11-25T05:21:51;47.73;;;33.23;;
52744;SDS011;38637;49.984;20.426;2022-11-25T05:24:16;45.13;;;31.67;;
52744;SDS011;38637;49.984;20.426;2022-11-25T05:26:41;45.30;;;31.73;;
52744;SDS011;38637;49.984;20.426;2022-11-25T05:29:08;43.30;;;29.80;;
52744;SDS011;38637;49.984;20.426;2022-11-25T05:34:00;44.33;;;28.80;;
52744;SDS011;38637;49.984;20.426;2022-11-25T05:36:26;46.83;;;30.77;;
52744;SDS011;38637;49.984;20.426;2022-11-25T05:38:52;51.43;;;31.67;;
52744;SDS011;38637;49.984;20.426;2022-11-25T05:41:17;49.67;;;33.00;;
52744;SDS011;38637;49.984;20.426;2022-11-25T05:43:42;53.37;;;34.60;;
52744;SDS011;38637;49.984;20.426;2022-11-25T05:46:08;55.10;;;33.83;;
52744;SDS011;38637;49.984;20.426;2022-11-25T05:48:34;52.08;;;33.40;;
52744;SDS011;38637;49.984;20.426;2022-11-25T05:50:59;46.70;;;32.30;;
52744;SDS011;38637;49.984;20.426;2022-11-25T05:53:25;52.72;;;35.10;;
52744;SDS011;38637;49.984;20.426;2022-11-25T05:55:54;50.57;;;35.23;;
52744;SDS011;38637;49.984;20.426;2022-11-25T05:58:24;49.72;;;31.52;;
52744;SDS011;38637;49.984;20.426;2022-11-25T06:00:50;54.08;;;35.15;;
52744;SDS011;38637;49.984;20.426;2022-11-25T06:03:16;53.37;;;34.30;;
52744;SDS011;38637;49.984;20.426;2022-11-25T06:05:42;55.13;;;35.93;;
52744;SDS011;38637;49.984;20.426;2022-11-25T06:08:08;51.15;;;35.42;;
52744;SDS011;38637;49.984;20.426;2022-11-25T06:10:36;52.08;;;35.03;;
52744;SDS011;38637;49.984;20.426;2022-11-25T06:13:03;57.10;;;36.08;;
52744;SDS011;38637;49.984;20.426;2022-11-25T06:15:28;52.07;;;34.53;;
52744;SDS011;38637;49.984;20.426;2022-11-25T06:17:54;49.73;;;33.30;;
52744;SDS011;38637;49.984;20.426;2022-11-25T06:20:19;53.13;;;33.85;;
52744;SDS011;38637;49.984;20.426;2022-11-25T06:22:45;54.87;;;38.93;;
52744;SDS011;38637;49.984;20.426;2022-11-25T06:25:10;54.93;;;40.37;;
52744;SDS011;38637;49.984;20.426;2022-11-25T06:27:35;59.20;;;41.73;;
52744;SDS011;38637;49.984;20.426;2022-11-25T06:30:01;61.17;;;42.37;;
52744;SDS011;38637;49.984;20.426;2022-11-25T06:32:26;55.87;;;36.93;;
52744;SDS011;38637;49.984;20.426;2022-11-25T06:34:52;59.07;;;37.33;;
52744;SDS011;38637;49.984;20.426;2022-11-25T06:37:17;61.83;;;36.63;;
52744;SDS011;38637;49.984;20.426;2022-11-25T06:39:42;54.07;;;37.47;;
52744;SDS011;38637;49.984;20.426;2022-11-25T06:42:08;67.47;;;42.77;;
52744;SDS011;38637;49.984;20.426;2022-11-25T06:44:33;68.67;;;44.20;;
52744;SDS011;38637;49.984;20.426;2022-11-25T06:46:58;109.93;;;64.53;;
52744;SDS011;38637;49.984;20.426;2022-11-25T06:49:24;100.67;;;62.10;;
52744;SDS011;38637;49.984;20.426;2022-11-25T06:51:49;79.27;;;53.30;;
52744;SDS011;38637;49.984;20.426;2022-11-25T06:54:14;72.27;;;47.77;;
52744;SDS011;38637;49.984;20.426;2022-11-25T06:56:40;85.20;;;52.10;;
52744;SDS011;38637;49.984;20.426;2022-11-25T06:59:05;57.90;;;40.70;;
52744;SDS011;38637;49.984;20.426;2022-11-25T07:01:31;51.93;;;33.20;;
52744;SDS011;38637;49.984;20.426;2022-11-25T07:04:03;49.93;;;32.13;;
52744;SDS011;38637;49.984;20.426;2022-11-25T07:06:30;50.00;;;32.20;;
52744;SDS011;38637;49.984;20.426;2022-11-25T07:11:29;45.88;;;32.33;;
52744;SDS011;38637;49.984;20.426;2022-11-25T07:14:00;49.33;;;32.15;;
52744;SDS011;38637;49.984;20.426;2022-11-25T07:16:27;43.95;;;30.05;;
52744;SDS011;38637;49.984;20.426;2022-11-25T07:18:53;50.73;;;35.13;;
52744;SDS011;38637;49.984;20.426;2022-11-25T07:21:20;42.53;;;30.10;;
52744;SDS011;38637;49.984;20.426;2022-11-25T07:23:47;43.70;;;31.63;;
52744;SDS011;38637;49.984;20.426;2022-11-25T07:26:18;51.70;;;33.10;;
52744;SDS011;38637;49.984;20.426;2022-11-25T07:28:45;44.58;;;31.70;;
52744;SDS011;38637;49.984;20.426;2022-11-25T07:31:19;44.53;;;32.75;;
52744;SDS011;38637;49.984;20.426;2022-11-25T07:33:46;44.33;;;32.53;;
52744;SDS011;38637;49.984;20.426;2022-11-25T07:36:13;47.37;;;34.60;;
52744;SDS011;38637;49.984;20.426;2022-11-25T07:38:39;50.80;;;31.95;;
52744;SDS011;38637;49.984;20.426;2022-11-25T07:41:12;55.63;;;35.92;;
52744;SDS011;38637;49.984;20.426;2022-11-25T07:43:41;52.55;;;35.88;;
52744;SDS011;38637;49.984;20.426;2022-11-25T07:46:30;63.03;;;37.05;;
52744;SDS011;38637;49.984;20.426;2022-11-25T07:48:58;51.63;;;35.22;;
52744;SDS011;38637;49.984;20.426;2022-11-25T07:51:27;50.88;;;34.67;;
52744;SDS011;38637;49.984;20.426;2022-11-25T07:53:55;49.97;;;33.92;;
52744;SDS011;38637;49.984;20.426;2022-11-25T07:56:21;55.28;;;35.25;;
52744;SDS011;38637;49.984;20.426;2022-11-25T07:58:47;53.90;;;33.40;;
52744;SDS011;38637;49.984;20.426;2022-11-25T08:01:14;50.63;;;33.03;;
52744;SDS011;38637;49.984;20.426;2022-11-25T08:03:41;51.20;;;33.63;;
52744;SDS011;38637;49.984;20.426;2022-11-25T08:08:37;46.13;;;32.33;;
52744;SDS011;38637;49.984;20.426;2022-11-25T08:11:07;48.42;;;33.25;;
52744;SDS011;38637;49.984;20.426;2022-11-25T08:13:34;47.80;;;31.58;;
52744;SDS011;38637;49.984;20.426;2022-11-25T08:16:00;54.53;;;33.33;;
52744;SDS011;38637;49.984;20.426;2022-11-25T08:18:26;47.03;;;30.47;;
52744;SDS011;38637;49.984;20.426;2022-11-25T08:20:51;44.17;;;30.57;;
52744;SDS011;38637;49.984;20.426;2022-11-25T08:23:22;70.95;;;46.42;;
52744;SDS011;38637;49.984;20.426;2022-11-25T08:25:47;58.30;;;38.77;;
52744;SDS011;38637;49.984;20.426;2022-11-25T08:28:12;57.17;;;35.17;;
52744;SDS011;38637;49.984;20.426;2022-11-25T08:30:37;45.13;;;31.27;;
52744;SDS011;38637;49.984;20.426;2022-11-25T08:33:03;40.40;;;28.37;;
52744;SDS011;38637;49.984;20.426;2022-11-25T08:35:31;40.78;;;28.10;;
52744;SDS011;38637;49.984;20.426;2022-11-25T08:38:01;43.78;;;28.15;;
52744;SDS011;38637;49.984;20.426;2022-11-25T08:40:27;40.10;;;26.48;;
52744;SDS011;38637;49.984;20.426;2022-11-25T08:42:53;38.83;;;25.23;;
52744;SDS011;38637;49.984;20.426;2022-11-25T08:45:18;40.53;;;27.13;;
52744;SDS011;38637;49.984;20.426;2022-11-25T08:47:43;55.93;;;38.43;;
52744;SDS011;38637;49.984;20.426;2022-11-25T08:50:09;56.60;;;38.63;;
52744;SDS011;38637;49.984;20.426;2022-11-25T08:52:35;50.57;;;35.60;;
52744;SDS011;38637;49.984;20.426;2022-11-25T08:55:00;42.87;;;30.23;;
52744;SDS011;38637;49.984;20.426;2022-11-25T08:57:25;44.43;;;29.23;;
52744;SDS011;38637;49.984;20.426;2022-11-25T08:59:51;43.97;;;31.67;;
52744;SDS011;38637;49.984;20.426;2022-11-25T09:02:16;45.33;;;30.07;;
52744;SDS011;38637;49.984;20.426;2022-11-25T09:04:42;41.77;;;29.40;;
52744;SDS011;38637;49.984;20.426;2022-11-25T09:07:08;42.43;;;29.07;;
52744;SDS011;38637;49.984;20.426;2022-11-25T09:09:33;44.53;;;30.73;;
52744;SDS011;38637;49.984;20.426;2022-11-25T09:11:58;46.33;;;29.07;;
52744;SDS011;38637;49.984;20.426;2022-11-25T09:14:24;46.10;;;30.00;;
52744;SDS011;38637;49.984;20.426;2022-11-25T09:16:49;48.73;;;30.17;;
52744;SDS011;38637;49.984;20.426;2022-11-25T09:19:15;44.60;;;30.17;;
52744;SDS011;38637;49.984;20.426;2022-11-25T09:21:43;45.50;;;29.65;;
52744;SDS011;38637;49.984;20.426;2022-11-25T09:24:09;44.55;;;28.75;;
52744;SDS011;38637;49.984;20.426;2022-11-25T09:26:34;48.93;;;32.23;;
52744;SDS011;38637;49.984;20.426;2022-11-25T09:29:03;50.42;;;32.03;;
52744;SDS011;38637;49.984;20.426;2022-11-25T09:31:29;55.53;;;36.37;;
52744;SDS011;38637;49.984;20.426;2022-11-25T09:33:54;56.17;;;35.17;;
52744;SDS011;38637;49.984;20.426;2022-11-25T09:36:20;52.50;;;32.38;;
52744;SDS011;38637;49.984;20.426;2022-11-25T09:38:47;53.97;;;30.48;;
52744;SDS011;38637;49.984;20.426;2022-11-25T09:47:35;47.72;;;33.88;;
52744;SDS011;38637;49.984;20.426;2022-11-25T09:55:15;51.13;;;30.42;;
52744;SDS011;38637;49.984;20.426;2022-11-25T10:00:41;49.45;;;32.55;;
52744;SDS011;38637;49.984;20.426;2022-11-25T10:05:58;53.75;;;34.55;;
52744;SDS011;38637;49.984;20.426;2022-11-25T10:08:29;59.78;;;37.22;;
52744;SDS011;38637;49.984;20.426;2022-11-25T10:11:00;63.00;;;40.15;;
52744;SDS011;38637;49.984;20.426;2022-11-25T10:13:39;61.55;;;39.10;;
52744;SDS011;38637;49.984;20.426;2022-11-25T10:16:21;64.95;;;39.60;;
52744;SDS011;38637;49.984;20.426;2022-11-25T10:24:39;71.72;;;41.13;;
52744;SDS011;38637;49.984;20.426;2022-11-25T10:27:04;68.27;;;41.60;;
52744;SDS011;38637;49.984;20.426;2022-11-25T10:29:36;68.85;;;41.67;;
52744;SDS011;38637;49.984;20.426;2022-11-25T10:32:21;70.00;;;41.13;;
52744;SDS011;38637;49.984;20.426;2022-11-25T10:34:51;78.93;;;43.93;;
52744;SDS011;38637;49.984;20.426;2022-11-25T10:37:24;70.00;;;43.33;;
52744;SDS011;38637;49.984;20.426;2022-11-25T10:39:53;69.43;;;41.78;;
52744;SDS011;38637;49.984;20.426;2022-11-25T10:42:22;70.90;;;44.20;;
52744;SDS011;38637;49.984;20.426;2022-11-25T10:44:50;65.50;;;42.28;;
52744;SDS011;38637;49.984;20.426;2022-11-25T10:47:45;71.60;;;42.05;;
52744;SDS011;38637;49.984;20.426;2022-11-25T10:53:21;63.88;;;40.97;;
52744;SDS011;38637;49.984;20.426;2022-11-25T10:56:31;70.72;;;40.42;;
52744;SDS011;38637;49.984;20.426;2022-11-25T10:58:42;60.13;;;38.25;;
52744;SDS011;38637;49.984;20.426;2022-11-25T11:01:15;66.03;;;40.60;;
52744;SDS011;38637;49.984;20.426;2022-11-25T11:03:49;65.47;;;40.45;;
52744;SDS011;38637;49.984;20.426;2022-11-25T11:06:35;64.45;;;41.05;;
52744;SDS011;38637;49.984;20.426;2022-11-25T11:09:02;64.20;;;39.58;;
52744;SDS011;38637;49.984;20.426;2022-11-25T11:11:28;62.73;;;39.07;;
52744;SDS011;38637;49.984;20.426;2022-11-25T11:14:13;59.83;;;38.67;;
52744;SDS011;38637;49.984;20.426;2022-11-25T11:16:50;61.20;;;37.78;;
52744;SDS011;38637;49.984;20.426;2022-11-25T11:19:27;65.95;;;40.13;;
52744;SDS011;38637;49.984;20.426;2022-11-25T11:21:55;75.28;;;44.35;;
52744;SDS011;38637;49.984;20.426;2022-11-25T11:24:26;70.40;;;43.10;;
52744;SDS011;38637;49.984;20.426;2022-11-25T11:27:13;70.07;;;43.60;;
52744;SDS011;38637;49.984;20.426;2022-11-25T11:30:13;70.47;;;44.25;;
52744;SDS011;38637;49.984;20.426;2022-11-25T11:32:41;70.68;;;44.67;;
52744;SDS011;38637;49.984;20.426;2022-11-25T11:35:29;70.50;;;42.88;;
52744;SDS011;38637;49.984;20.426;2022-11-25T11:38:05;65.38;;;39.92;;
52744;SDS011;38637;49.984;20.426;2022-11-25T11:40:43;60.95;;;37.33;;
52744;SDS011;38637;49.984;20.426;2022-11-25T11:46:11;63.00;;;40.25;;
52744;SDS011;38637;49.984;20.426;2022-11-25T11:51:43;76.05;;;47.63;;
52744;SDS011;38637;49.984;20.426;2022-11-25T11:59:51;64.22;;;39.67;;
52744;SDS011;38637;49.984;20.426;2022-11-25T12:02:31;60.08;;;38.05;;
52744;SDS011;38637;49.984;20.426;2022-11-25T12:10:27;54.90;;;36.33;;
52744;SDS011;38637;49.984;20.426;2022-11-25T12:13:09;56.20;;;36.03;;
52744;SDS011;38637;49.984;20.426;2022-11-25T12:15:56;53.42;;;36.28;;
52744;SDS011;38637;49.984;20.426;2022-11-25T12:23:55;58.45;;;36.00;;
52744;SDS011;38637;49.984;20.426;2022-11-25T12:26:23;58.40;;;37.80;;
52744;SDS011;38637;49.984;20.426;2022-11-25T12:28:56;60.15;;;37.63;;
52744;SDS011;38637;49.984;20.426;2022-11-25T12:31:31;62.97;;;40.78;;
52744;SDS011;38637;49.984;20.426;2022-11-25T12:34:14;61.30;;;39.55;;
52744;SDS011;38637;49.984;20.426;2022-11-25T12:36:45;60.67;;;38.65;;
52744;SDS011;38637;49.984;20.426;2022-11-25T12:39:19;64.47;;;40.93;;
52744;SDS011;38637;49.984;20.426;2022-11-25T12:41:54;71.35;;;42.65;;
52744;SDS011;38637;49.984;20.426;2022-11-25T12:44:30;78.20;;;45.78;;
52744;SDS011;38637;49.984;20.426;2022-11-25T12:47:01;75.43;;;45.72;;
52744;SDS011;38637;49.984;20.426;2022-11-25T12:49:27;67.27;;;42.47;;
52744;SDS011;38637;49.984;20.426;2022-11-25T13:10:35;87.45;;;54.25;;
52744;SDS011;38637;49.984;20.426;2022-11-25T13:13:17;81.50;;;51.95;;
52744;SDS011;38637;49.984;20.426;2022-11-25T13:15:50;76.55;;;51.55;;
52744;SDS011;38637;49.984;20.426;2022-11-25T13:18:19;108.85;;;70.38;;
52744;SDS011;38637;49.984;20.426;2022-11-25T13:23:20;110.15;;;68.82;;
52744;SDS011;38637;49.984;20.426;2022-11-25T13:25:48;100.78;;;59.97;;
52744;SDS011;38637;49.984;20.426;2022-11-25T13:31:15;78.95;;;48.15;;
52744;SDS011;38637;49.984;20.426;2022-11-25T13:38:58;87.57;;;51.25;;
52744;SDS011;38637;49.984;20.426;2022-11-25T13:46:32;88.15;;;56.60;;
52744;SDS011;38637;49.984;20.426;2022-11-25T13:51:57;107.32;;;65.65;;
52744;SDS011;38637;49.984;20.426;2022-11-25T13:54:30;111.60;;;69.43;;
52744;SDS011;38637;49.984;20.426;2022-11-25T13:57:00;102.57;;;65.90;;
52744;SDS011;38637;49.984;20.426;2022-11-25T14:05:07;95.72;;;60.97;;
52744;SDS011;38637;49.984;20.426;2022-11-25T14:08:19;92.70;;;58.47;;
52744;SDS011;38637;49.984;20.426;2022-11-25T14:13:25;85.68;;;55.00;;
52744;SDS011;38637;49.984;20.426;2022-11-25T14:18:31;84.80;;;55.78;;
52744;SDS011;38637;49.984;20.426;2022-11-25T14:21:02;88.68;;;58.60;;
52744;SDS011;38637;49.984;20.426;2022-11-25T14:26:49;90.55;;;60.53;;
52744;SDS011;38637;49.984;20.426;2022-11-25T14:29:16;86.88;;;57.75;;
52744;SDS011;38637;49.984;20.426;2022-11-25T14:32:07;83.63;;;55.40;;
52744;SDS011;38637;49.984;20.426;2022-11-25T14:34:38;77.75;;;54.30;;
52744;SDS011;38637;49.984;20.426;2022-11-25T14:37:11;85.28;;;59.40;;
52744;SDS011;38637;49.984;20.426;2022-11-25T14:42:12;121.13;;;83.43;;
52744;SDS011;38637;49.984;20.426;2022-11-25T14:44:51;100.75;;;73.30;;
52744;SDS011;38637;49.984;20.426;2022-11-25T14:47:22;95.75;;;66.65;;
52744;SDS011;38637;49.984;20.426;2022-11-25T14:49:50;104.18;;;68.65;;
52744;SDS011;38637;49.984;20.426;2022-11-25T14:52:18;96.45;;;67.32;;
52744;SDS011;38637;49.984;20.426;2022-11-25T14:54:47;97.65;;;66.03;;
52744;SDS011;38637;49.984;20.426;2022-11-25T14:57:17;106.75;;;70.10;;
52744;SDS011;38637;49.984;20.426;2022-11-25T14:59:47;92.63;;;61.13;;
52744;SDS011;38637;49.984;20.426;2022-11-25T15:02:23;99.23;;;62.20;;
52744;SDS011;38637;49.984;20.426;2022-11-25T15:04:51;98.63;;;63.78;;
52744;SDS011;38637;49.984;20.426;2022-11-25T15:07:18;101.60;;;60.50;;
52744;SDS011;38637;49.984;20.426;2022-11-25T15:09:46;87.95;;;58.83;;
52744;SDS011;38637;49.984;20.426;2022-11-25T15:12:13;86.83;;;58.77;;
52744;SDS011;38637;49.984;20.426;2022-11-25T15:14:43;101.50;;;68.10;;
52744;SDS011;38637;49.984;20.426;2022-11-25T15:17:25;101.18;;;71.00;;
52744;SDS011;38637;49.984;20.426;2022-11-25T15:20:03;210.52;;;137.23;;
52744;SDS011;38637;49.984;20.426;2022-11-25T15:22:36;194.82;;;130.10;;
52744;SDS011;38637;49.984;20.426;2022-11-25T15:25:05;209.63;;;134.93;;
52744;SDS011;38637;49.984;20.426;2022-11-25T15:27:32;169.52;;;118.57;;
52744;SDS011;38637;49.984;20.426;2022-11-25T15:29:58;168.30;;;116.13;;
52744;SDS011;38637;49.984;20.426;2022-11-25T15:37:17;164.55;;;112.00;;
52744;SDS011;38637;49.984;20.426;2022-11-25T15:39:43;141.03;;;94.60;;
52744;SDS011;38637;49.984;20.426;2022-11-25T15:45:02;167.27;;;111.25;;
52744;SDS011;38637;49.984;20.426;2022-11-25T15:47:34;159.10;;;108.07;;
52744;SDS011;38637;49.984;20.426;2022-11-25T15:50:01;186.40;;;122.83;;
52744;SDS011;38637;49.984;20.426;2022-11-25T15:52:28;188.35;;;123.05;;
52744;SDS011;38637;49.984;20.426;2022-11-25T15:54:59;165.77;;;114.47;;
52744;SDS011;38637;49.984;20.426;2022-11-25T15:57:40;180.82;;;123.05;;
52744;SDS011;38637;49.984;20.426;2022-11-25T16:07:39;216.98;;;140.38;;
52744;SDS011;38637;49.984;20.426;2022-11-25T16:10:32;184.88;;;121.45;;
52744;SDS011;38637;49.984;20.426;2022-11-25T16:18:41;164.73;;;112.90;;
52744;SDS011;38637;49.984;20.426;2022-11-25T16:21:19;181.50;;;117.85;;
52744;SDS011;38637;49.984;20.426;2022-11-25T16:23:54;188.90;;;113.47;;
52744;SDS011;38637;49.984;20.426;2022-11-25T16:26:24;153.27;;;103.30;;
52744;SDS011;38637;49.984;20.426;2022-11-25T16:28:55;142.48;;;100.07;;
52744;SDS011;38637;49.984;20.426;2022-11-25T16:31:22;144.55;;;100.00;;
52744;SDS011;38637;49.984;20.426;2022-11-25T16:33:49;137.48;;;94.88;;
52744;SDS011;38637;49.984;20.426;2022-11-25T16:36:18;133.55;;;95.50;;
52744;SDS011;38637;49.984;20.426;2022-11-25T16:38:43;144.57;;;100.20;;
52744;SDS011;38637;49.984;20.426;2022-11-25T16:41:09;132.73;;;96.47;;